createdAt,value
2018-10-16T00:00:33.953Z,99.90
2018-10-16T00:05:37.065Z,99.90
2018-10-16T00:10:44.687Z,99.90
2018-10-16T00:15:47.800Z,99.90
2018-10-16T00:20:50.905Z,99.90
2018-10-16T00:25:53.989Z,99.90
2018-10-16T00:30:57.080Z,99.90
2018-10-16T00:36:00.157Z,99.90
2018-10-16T00:41:03.244Z,99.90
2018-10-16T00:46:06.372Z,99.90
2018-10-16T00:51:09.418Z,99.90
2018-10-16T00:56:12.495Z,99.90
2018-10-16T01:01:19.210Z,99.90
2018-10-16T01:06:22.387Z,99.90
2018-10-16T01:11:25.490Z,99.90
2018-10-16T01:16:28.600Z,99.90
2018-10-16T01:21:31.728Z,99.90
2018-10-16T01:26:34.812Z,99.90
2018-10-16T01:31:38.009Z,99.90
2018-10-16T01:36:41.027Z,99.90
2018-10-16T01:41:44.140Z,99.90
2018-10-16T01:46:47.299Z,99.90
2018-10-16T01:51:50.336Z,99.90
2018-10-16T01:56:53.415Z,99.90
2018-10-16T02:01:56.629Z,99.90
2018-10-16T02:06:59.720Z,99.90
2018-10-16T02:12:02.780Z,99.90
2018-10-16T02:17:06.428Z,99.90
2018-10-16T02:22:09.520Z,99.90
2018-10-16T02:27:12.568Z,99.90
2018-10-16T02:32:15.649Z,99.90
2018-10-16T02:37:18.729Z,99.90
2018-10-16T02:42:21.757Z,99.90
2018-10-16T02:47:24.828Z,99.90
2018-10-16T02:52:27.896Z,99.90
2018-10-16T02:57:31.024Z,99.90
2018-10-16T03:02:34.068Z,99.90
2018-10-16T03:07:37.204Z,99.90
2018-10-16T03:12:40.270Z,99.90
2018-10-16T03:17:43.388Z,99.90
2018-10-16T03:22:46.472Z,99.90
2018-10-16T03:27:50.509Z,99.90
2018-10-16T03:32:53.618Z,99.90
2018-10-16T03:37:56.728Z,99.90
2018-10-16T03:42:59.809Z,99.90
2018-10-16T03:48:02.854Z,99.90
2018-10-16T03:53:06.152Z,99.90
2018-10-16T03:58:09.248Z,99.90
2018-10-16T04:03:12.300Z,99.90
2018-10-16T04:08:15.393Z,99.90
2018-10-16T04:13:18.458Z,99.90
2018-10-16T04:18:21.516Z,99.90
2018-10-16T04:23:24.592Z,99.90
2018-10-16T04:28:28.036Z,99.90
2018-10-16T04:33:31.089Z,99.90
2018-10-16T04:38:34.157Z,99.90
2018-10-16T04:43:37.212Z,99.90
2018-10-16T04:48:40.240Z,99.90
2018-10-16T04:53:43.297Z,99.90
2018-10-16T04:58:46.408Z,99.90
2018-10-16T05:03:49.485Z,99.90
2018-10-16T05:08:52.540Z,99.90
2018-10-16T05:13:55.592Z,99.90
2018-10-16T05:18:58.661Z,99.90
2018-10-16T05:24:01.728Z,99.90
2018-10-16T05:29:05.195Z,99.90
2018-10-16T05:34:09.130Z,99.90
2018-10-16T05:39:12.690Z,99.90
2018-10-16T05:44:15.692Z,99.90
2018-10-16T05:49:18.766Z,99.90
2018-10-16T05:54:21.816Z,99.90
2018-10-16T05:59:24.866Z,99.90
2018-10-16T06:04:27.928Z,99.90
2018-10-16T06:09:31.096Z,99.90
2018-10-16T06:14:34.155Z,99.90
2018-10-16T06:19:37.302Z,99.90
2018-10-16T06:24:40.426Z,99.90
2018-10-16T06:29:43.453Z,99.90
2018-10-16T06:34:47.124Z,99.90
2018-10-16T06:39:50.575Z,99.90
2018-10-16T06:44:53.896Z,99.90
2018-10-16T06:50:00.816Z,99.90
2018-10-16T06:55:03.933Z,99.90
2018-10-16T07:00:07.360Z,99.90
2018-10-16T07:05:10.440Z,99.90
2018-10-16T07:10:13.561Z,99.90
2018-10-16T07:15:16.614Z,99.90
2018-10-16T07:20:19.659Z,99.90
2018-10-16T07:25:22.675Z,99.90
2018-10-16T07:30:25.727Z,99.90
2018-10-16T07:35:28.772Z,99.90
2018-10-16T07:40:31.813Z,99.90
2018-10-16T07:45:34.919Z,99.90
2018-10-16T07:50:37.959Z,99.90
2018-10-16T07:55:40.996Z,99.90
2018-10-16T08:00:44.061Z,99.90
2018-10-16T08:05:47.111Z,99.90
2018-10-16T08:10:50.126Z,99.90
2018-10-16T08:15:53.379Z,99.90
2018-10-16T08:20:56.421Z,98.90
2018-10-16T08:25:59.513Z,97.80
2018-10-16T08:31:02.653Z,97.20
2018-10-16T08:36:05.788Z,97.40
2018-10-16T08:41:09.687Z,98.80
2018-10-16T08:46:24.143Z,99.90
2018-10-16T08:51:34.756Z,99.90
2018-10-16T08:56:37.776Z,99.90
2018-10-16T09:01:40.841Z,99.90
2018-10-16T09:06:43.951Z,99.90
2018-10-16T09:11:48.162Z,99.90
2018-10-16T09:16:51.208Z,99.90
2018-10-16T09:21:54.421Z,99.90
2018-10-16T09:26:57.505Z,99.90
2018-10-16T09:32:00.567Z,99.90
2018-10-16T09:37:03.617Z,99.90
2018-10-16T09:42:06.651Z,99.90
2018-10-16T09:47:09.728Z,99.90
2018-10-16T09:52:12.786Z,99.90
2018-10-16T09:57:15.848Z,99.90
2018-10-16T10:02:18.889Z,99.90
2018-10-16T10:07:21.920Z,99.90
2018-10-16T10:12:25.049Z,99.90
2018-10-16T10:17:28.075Z,99.90
2018-10-16T10:22:31.238Z,99.90
2018-10-16T10:27:34.389Z,99.90
2018-10-16T10:32:37.421Z,99.90
2018-10-16T10:37:40.531Z,99.90
2018-10-16T10:42:43.608Z,99.90
2018-10-16T10:47:46.724Z,99.90
2018-10-16T10:52:49.755Z,99.90
2018-10-16T10:57:52.792Z,99.90
2018-10-16T11:02:55.905Z,99.90
2018-10-16T11:07:58.864Z,99.90
2018-10-16T11:13:02.891Z,99.90
2018-10-16T11:18:05.916Z,99.90
2018-10-16T11:23:09.024Z,98.70
2018-10-16T11:28:12.073Z,97.20
2018-10-16T11:33:15.213Z,97.00
2018-10-16T11:38:18.372Z,95.70
2018-10-16T11:43:21.403Z,94.10
2018-10-16T11:48:24.471Z,94.50
2018-10-16T11:53:27.528Z,93.60
2018-10-16T11:58:30.564Z,94.30
2018-10-16T12:03:33.592Z,91.50
2018-10-16T12:08:36.748Z,91.40
2018-10-16T12:13:39.852Z,91.90
2018-10-16T12:18:48.357Z,92.70
2018-10-16T12:23:51.482Z,93.40
2018-10-16T12:28:54.613Z,92.40
2018-10-16T12:33:57.667Z,93.40
2018-10-16T12:39:00.713Z,93.30
2018-10-16T12:44:03.820Z,93.00
2018-10-16T12:49:06.869Z,91.50
2018-10-16T12:54:09.947Z,91.50
2018-10-16T12:59:13.035Z,90.80
2018-10-16T13:04:16.108Z,90.40
2018-10-16T13:09:19.147Z,90.50
2018-10-16T13:14:22.192Z,91.20
2018-10-16T13:19:25.229Z,91.30
2018-10-16T13:24:28.284Z,91.50
2018-10-16T13:29:31.558Z,91.10
2018-10-16T13:34:34.498Z,91.00
2018-10-16T13:39:37.502Z,91.00
2018-10-16T13:44:40.528Z,89.70
2018-10-16T13:49:43.574Z,89.00
2018-10-16T13:54:46.703Z,88.70
2018-10-16T13:59:49.800Z,88.70
2018-10-16T14:04:52.933Z,88.50
2018-10-16T14:09:55.942Z,89.20
2018-10-16T14:14:58.943Z,89.60
2018-10-16T14:20:02.041Z,90.10
2018-10-16T14:25:06.141Z,90.60
2018-10-16T14:30:10.820Z,91.10
2018-10-16T14:35:14.252Z,91.90
2018-10-16T14:40:17.414Z,91.90
2018-10-16T14:45:20.348Z,92.50
2018-10-16T14:50:23.392Z,92.80
2018-10-16T14:55:26.389Z,93.70
2018-10-16T15:00:29.563Z,93.30
2018-10-16T15:05:32.633Z,94.10
2018-10-16T15:10:35.685Z,96.80
2018-10-16T15:15:38.699Z,98.00
2018-10-16T15:20:41.708Z,99.40
2018-10-16T15:25:44.720Z,99.90
2018-10-16T15:30:47.784Z,99.90
2018-10-16T15:35:50.956Z,99.90
2018-10-16T15:40:53.870Z,99.90
2018-10-16T15:45:56.994Z,99.90
2018-10-16T15:51:00.046Z,99.90
2018-10-16T15:56:03.140Z,99.90
2018-10-16T16:01:06.138Z,99.90
2018-10-16T16:06:09.251Z,99.90
2018-10-16T16:11:12.376Z,99.90
2018-10-16T16:16:15.513Z,99.90
2018-10-16T16:21:18.608Z,99.90
2018-10-16T16:26:21.769Z,99.90
2018-10-16T16:31:24.760Z,99.90
2018-10-16T16:36:27.836Z,99.90
2018-10-16T16:41:30.906Z,99.90
2018-10-16T16:46:33.948Z,99.90
2018-10-16T16:51:37.089Z,99.90
2018-10-16T16:56:40.196Z,99.90
2018-10-16T17:01:43.260Z,99.90
2018-10-16T17:06:46.323Z,99.90
2018-10-16T17:11:49.469Z,99.90
2018-10-16T17:16:52.497Z,99.90
2018-10-16T17:21:55.560Z,99.90
2018-10-16T17:26:58.560Z,99.90
2018-10-16T17:32:01.618Z,99.90
2018-10-16T17:37:04.696Z,99.90
2018-10-16T17:42:07.837Z,99.90
2018-10-16T17:47:10.893Z,99.90
2018-10-16T17:52:13.939Z,99.90
2018-10-16T17:57:17.032Z,99.90
2018-10-16T18:02:20.123Z,99.90
2018-10-16T18:07:23.148Z,99.90
2018-10-16T18:12:26.408Z,99.90
2018-10-16T18:17:29.454Z,99.90
2018-10-16T18:22:32.483Z,99.90
2018-10-16T18:27:35.695Z,99.90
2018-10-16T18:32:38.928Z,99.90
2018-10-16T18:37:42.954Z,99.90
2018-10-16T18:42:46.009Z,99.90
2018-10-16T18:47:49.050Z,99.90
2018-10-16T18:52:52.159Z,99.90
2018-10-16T18:57:55.249Z,99.90
2018-10-16T19:02:58.367Z,99.90
2018-10-16T19:08:01.430Z,99.90
2018-10-16T19:13:04.589Z,99.90
2018-10-16T19:18:07.593Z,99.90
2018-10-16T19:23:10.649Z,99.90
2018-10-16T19:28:13.704Z,99.90
2018-10-16T19:33:16.740Z,99.90
2018-10-16T19:38:19.787Z,99.90
2018-10-16T19:43:22.863Z,99.90
2018-10-16T19:48:25.911Z,99.90
2018-10-16T19:53:29.121Z,99.90
2018-10-16T19:58:32.162Z,99.90
2018-10-16T20:03:35.269Z,99.90
2018-10-16T20:08:38.458Z,99.90
2018-10-16T20:13:41.644Z,99.90
2018-10-16T20:18:44.790Z,99.90
2018-10-16T20:23:47.918Z,99.90
2018-10-16T20:28:50.973Z,99.90
2018-10-16T20:33:54.084Z,99.90
2018-10-16T20:38:57.242Z,99.90
2018-10-16T20:44:00.299Z,99.90
2018-10-16T20:49:04.139Z,99.90
2018-10-16T20:54:07.096Z,99.90
2018-10-16T20:59:10.193Z,99.90
2018-10-16T21:04:13.273Z,99.90
2018-10-16T21:09:16.284Z,99.90
2018-10-16T21:14:19.307Z,99.90
2018-10-16T21:19:22.361Z,99.90
2018-10-16T21:24:25.432Z,99.90
2018-10-16T21:29:28.561Z,99.90
2018-10-16T21:34:31.576Z,99.90
2018-10-16T21:39:34.693Z,99.90
2018-10-16T21:44:37.728Z,99.90
2018-10-16T21:49:40.800Z,99.90
2018-10-16T21:54:43.823Z,99.90
2018-10-16T21:59:46.906Z,99.90
2018-10-16T22:04:49.937Z,99.90
2018-10-16T22:09:52.991Z,99.90
2018-10-16T22:14:56.060Z,99.90
2018-10-16T22:19:59.096Z,99.90
2018-10-16T22:25:02.262Z,99.90
2018-10-16T22:30:05.287Z,99.90
2018-10-16T22:35:09.558Z,99.90
2018-10-16T22:40:12.564Z,99.90
2018-10-16T22:45:15.568Z,99.90
2018-10-16T22:50:18.669Z,99.90
2018-10-16T22:55:21.687Z,99.90
2018-10-16T23:00:24.694Z,99.90
2018-10-16T23:05:27.805Z,99.90
2018-10-16T23:10:30.952Z,99.90
2018-10-16T23:15:34.019Z,99.90
2018-10-16T23:20:37.121Z,99.90
2018-10-16T23:25:40.087Z,99.90
2018-10-16T23:30:43.159Z,99.90
2018-10-16T23:35:46.181Z,99.90
2018-10-16T23:40:49.272Z,99.90
2018-10-16T23:45:52.460Z,99.90
2018-10-16T23:50:55.464Z,99.90
2018-10-16T23:55:58.517Z,99.90
